• Join FlightAware (Why Join?)
  • Login
  • US Flag 
12:14AM EDT


 

Airport Tracker/Info


-or-


 

Live Flight TrackerFlight Track Log ✈ N116SV ✈ 30-Mar-2014 ✈ KMTN - KMTN

Flight Track Log - Related Links

Times and Time Zones

All times are in EDT time to prevent confusion due to time zone crossing. See the N116SV flight status page for this flight to view local times or setup timezone preferences in your user account.

Time Position Orientation Groundspeed Altitude Reporting Facility
EDT Latitude Longitude Course Direction KTS MPH feet Rate Location/Type
11:51AM 39.2167 -76.3833 159° South 141 162 2,600  Level Potomac TRACON
11:52AM 39.1833 -76.3667 159° South 149 171 3,000 240 Climbing Potomac TRACON
11:53AM 39.1500 -76.3333 142° Southeast 134 154 3,100 60 Climbing Potomac TRACON
11:54AM 39.1000 -76.3167 165° South 135 155 3,200  Climbing Potomac TRACON
11:55AM 39.0667 -76.3167 180° South 139 160 3,100 -120 Descending Potomac TRACON
11:56AM 39.0333 -76.3000 159° South 139 160 3,000  Descending Potomac TRACON
11:57AM 38.9833 -76.2833 165° South 131 151 3,100  Climbing Potomac TRACON
11:58AM 38.9500 -76.2833 180° South 133 153 3,100  Level Potomac TRACON
11:59AM 38.9167 -76.2667 159° South 134 154 3,100  Level Potomac TRACON
12:00PM 38.8833 -76.2500 159° South 133 153 3,100  Level Potomac TRACON
12:01PM 38.8667 -76.2167 123° Southeast 130 150 3,100 -60 Level Potomac TRACON
12:02PM 38.8500 -76.2000 142° Southeast 115 132 3,000 -60 Descending Potomac TRACON
12:03PM 38.8500 -76.1667 90° East 83 96 3,000  Level Potomac TRACON
12:04PM 38.8667 -76.1500 38° Northeast 80 92 3,100 60 Climbing Potomac TRACON
12:05PM 38.8833 -76.1333 38° Northeast 74 85 3,200  Climbing Potomac TRACON
12:06PM 38.9000 -76.1167 38° Northeast 71 82 3,100 -60 Descending Potomac TRACON
12:07PM 38.9167 -76.1000 38° Northeast 80 92 3,100  Level Potomac TRACON
12:08PM 38.9167 -76.0833 90° East 70 81 3,100 -180 Level Potomac TRACON
12:09PM 38.9333 -76.0500 57° Northeast 77 89 2,800 -420 Descending Potomac TRACON
12:10PM 38.9500 -76.0333 38° Northeast 94 108 2,300 -360 Descending Potomac TRACON
12:11PM 38.9833 -76.0167 21° North 93 107 2,100 -180 Descending Potomac TRACON
12:12PM 39.0000 -75.9833 57° Northeast 80 92 2,000  Descending Potomac TRACON
12:13PM 39.0000 -75.9667 90° East 105 121 2,100  Climbing Potomac TRACON
12:14PM 38.9667 -75.9500 159° South 128 147 2,100 -240 Level Potomac TRACON
12:15PM 38.9333 -75.9667 201° Southwest 121 139 1,700 -240 Descending Potomac TRACON
12:16PM 38.9000 -75.9833 201° Southwest 111 128 1,700 -60 Level Potomac TRACON
12:17PM 38.8833 -76.0167 237° Southwest 110 127 1,600 -120 Descending Potomac TRACON
12:18PM 38.8500 -76.0333 201° Southwest 111 128 1,500 -420 Descending Potomac TRACON
12:19PM 38.8333 -76.0500 218° Southwest 106 122 800 -360 Descending Potomac TRACON
12:20PM 38.8000 -76.0333 159° South 114 131 800  Level Potomac TRACON
12:21PM 38.7833 -76.0667 237° Southwest 116 133 900 120 Climbing Potomac TRACON
12:23PM 38.8167 -76.0833 349° North 69 79 1,200 360 Climbing Potomac TRACON
12:24PM 38.8333 -76.0833 360° North 70 81 2,000 780 Climbing Potomac TRACON
12:25PM 38.8500 -76.1000 322° Northwest 54 62 2,800 540 Climbing Potomac TRACON
12:26PM 38.8500 -76.1167 270° West 72 83 3,100 60 Climbing Potomac TRACON
12:27PM 38.8667 -76.1333 322° Northwest 80 92 3,000 -60 Descending Potomac TRACON
12:29PM 38.8833 -76.1833 293° West 78 90 3,000  Level Potomac TRACON
12:30PM 38.9000 -76.2167 303° West 77 89 3,000  Level Potomac TRACON
12:31PM 38.9000 -76.2333 270° West 75 86 3,000  Level Potomac TRACON
12:32PM 38.9167 -76.2667 303° West 76 87 3,000  Level Potomac TRACON
12:33PM 38.9333 -76.2833 322° Northwest 73 84 3,000  Level Potomac TRACON
12:34PM 38.9333 -76.3000 270° West 70 81 3,000  Level Potomac TRACON
12:35PM 38.9500 -76.3167 322° Northwest 71 82 3,000  Level Potomac TRACON
12:36PM 38.9667 -76.3000 38° Northeast 65 75 3,000  Level Potomac TRACON
12:37PM 38.9833 -76.2833 38° Northeast 64 74 3,000  Level Potomac TRACON
12:38PM 39.0000 -76.2667 38° Northeast 67 77 3,000 -60 Level Potomac TRACON
12:39PM 39.0167 -76.2667 360° North 64 74 2,900 -300 Descending Potomac TRACON
12:40PM 39.0333 -76.2500 38° Northeast 79 91 2,400 -480 Descending Potomac TRACON
12:41PM 39.0500 -76.2333 38° Northeast 88 101 2,000 -240 Descending Potomac TRACON
12:42PM 39.0667 -76.2333 360° North 74 85 2,000  Level Potomac TRACON
12:43PM 39.1000 -76.2333 360° North 78 90 2,000  Level Potomac TRACON
12:44PM 39.1167 -76.2333 360° North 74 85 2,000  Level Potomac TRACON
12:45PM 39.1333 -76.2333 360° North 73 84 2,000  Level Potomac TRACON
12:46PM 39.1500 -76.2333 360° North 77 89 2,000  Level Potomac TRACON
12:47PM 39.1833 -76.2167 21° North 68 78 2,000  Level Potomac TRACON
12:48PM 39.1833 -76.2500 270° West 93 107 2,000  Level Potomac TRACON
12:49PM 39.1500 -76.2333 159° South 133 153 2,000  Level Potomac TRACON
12:50PM 39.1500 -76.2000 90° East 111 128 2,000  Level Potomac TRACON
12:51PM 39.1667 -76.2000 360° North 75 86 2,100  Climbing Potomac TRACON
12:52PM 39.1667 -76.2167 270° West 59 68 2,000 -60 Descending Potomac TRACON
12:53PM 39.1833 -76.2333 322° Northwest 55 63 2,000  Level Potomac TRACON
12:54PM 39.1833 -76.2500 270° West 47 54 2,000  Level Potomac TRACON
12:55PM 39.2000 -76.2667 322° Northwest 58 67 2,100  Climbing Potomac TRACON
12:56PM 39.2167 -76.2833 322° Northwest 61 70 2,100  Level Potomac TRACON
12:57PM 39.2333 -76.3000 322° Northwest 62 71 2,100  Level Potomac TRACON
12:58PM 39.2333 -76.3167 270° West 61 70 2,100 -60 Level Potomac TRACON
12:59PM 39.2500 -76.3167 360° North 67 77 2,000 -240 Descending Potomac TRACON
01:00PM 39.2667 -76.3500 303° West 81 93 1,700 -360 Descending Potomac TRACON
01:01PM 39.2833 -76.3500 360° North 66 76 1,300 -480 Descending Potomac TRACON
01:02PM 39.3000 -76.3667 322° Northwest 69 79 800 -420 Descending Potomac TRACON
01:03PM 39.3000 -76.3833 270° West 67 77 500 -300 Descending Potomac TRACON